Terminal Aerodrome Forecast
Issued by NWS

Home | Current Version | Previous Version | Text Only | Print | Product List | Glossary On
Versions: 1 2 3 4 5 6 7 8 9 10 11 12 13 14 15 16 17 18 19 20
000
FTUS43 KIND 312325
TAFLAF
TAF
KLAF 312325Z 0100/0124 21004KT P6SM SCT060 SCT250
     FM010600 VRB02KT 2SM BR SCT250
      TEMPO 0108/0111 1/2SM FG
     FM011300 23005KT P6SM SCT050=

USA.gov is the U.S. government's official web portal to all federal, state and local government web resources and services.